sensor_id;sensor_type;location;lat;lon;timestamp;P1;durP1;ratioP1;P2;durP2;ratioP2
54937;SDS011;52756;52.826;6.214;2023-04-12T00:01:06;7.88;;;2.45;;
54937;SDS011;52756;52.826;6.214;2023-04-12T00:03:32;6.82;;;3.15;;
54937;SDS011;52756;52.826;6.214;2023-04-12T00:05:58;7.45;;;3.17;;
54937;SDS011;52756;52.826;6.214;2023-04-12T00:08:27;8.60;;;2.92;;
54937;SDS011;52756;52.826;6.214;2023-04-12T00:11:00;8.32;;;2.30;;
54937;SDS011;52756;52.826;6.214;2023-04-12T00:13:27;11.02;;;2.83;;
54937;SDS011;52756;52.826;6.214;2023-04-12T00:15:53;6.57;;;2.65;;
54937;SDS011;52756;52.826;6.214;2023-04-12T00:18:19;7.85;;;2.47;;
54937;SDS011;52756;52.826;6.214;2023-04-12T00:20:49;6.70;;;1.90;;
54937;SDS011;52756;52.826;6.214;2023-04-12T00:23:16;8.38;;;2.50;;
54937;SDS011;52756;52.826;6.214;2023-04-12T00:25:42;12.38;;;2.58;;
54937;SDS011;52756;52.826;6.214;2023-04-12T00:28:08;6.32;;;1.85;;
54937;SDS011;52756;52.826;6.214;2023-04-12T00:30:34;5.50;;;2.10;;
54937;SDS011;52756;52.826;6.214;2023-04-12T00:33:00;9.57;;;2.55;;
54937;SDS011;52756;52.826;6.214;2023-04-12T00:35:25;7.70;;;2.75;;
54937;SDS011;52756;52.826;6.214;2023-04-12T00:37:51;10.27;;;2.30;;
54937;SDS011;52756;52.826;6.214;2023-04-12T00:40:17;13.75;;;3.55;;
54937;SDS011;52756;52.826;6.214;2023-04-12T00:42:43;9.43;;;2.50;;
54937;SDS011;52756;52.826;6.214;2023-04-12T00:45:08;9.15;;;2.50;;
54937;SDS011;52756;52.826;6.214;2023-04-12T00:47:35;7.18;;;2.40;;
54937;SDS011;52756;52.826;6.214;2023-04-12T00:50:01;9.02;;;2.75;;
54937;SDS011;52756;52.826;6.214;2023-04-12T00:52:31;9.52;;;2.00;;
54937;SDS011;52756;52.826;6.214;2023-04-12T00:54:59;9.02;;;2.55;;
54937;SDS011;52756;52.826;6.214;2023-04-12T00:57:29;6.30;;;2.20;;
54937;SDS011;52756;52.826;6.214;2023-04-12T01:00:03;7.45;;;2.38;;
54937;SDS011;52756;52.826;6.214;2023-04-12T01:02:32;6.40;;;2.58;;
54937;SDS011;52756;52.826;6.214;2023-04-12T01:04:58;8.45;;;2.20;;
54937;SDS011;52756;52.826;6.214;2023-04-12T01:10:06;6.97;;;2.70;;
54937;SDS011;52756;52.826;6.214;2023-04-12T01:18:38;7.97;;;2.40;;
54937;SDS011;52756;52.826;6.214;2023-04-12T01:21:08;9.60;;;2.58;;
54937;SDS011;52756;52.826;6.214;2023-04-12T01:27:02;8.20;;;2.15;;
54937;SDS011;52756;52.826;6.214;2023-04-12T01:29:35;8.82;;;2.13;;
54937;SDS011;52756;52.826;6.214;2023-04-12T01:32:01;6.50;;;1.60;;
54937;SDS011;52756;52.826;6.214;2023-04-12T01:34:29;11.35;;;2.50;;
54937;SDS011;52756;52.826;6.214;2023-04-12T01:36:58;7.85;;;2.05;;
54937;SDS011;52756;52.826;6.214;2023-04-12T01:39:27;8.80;;;2.95;;
54937;SDS011;52756;52.826;6.214;2023-04-12T01:41:53;10.05;;;2.40;;
54937;SDS011;52756;52.826;6.214;2023-04-12T01:44:19;7.30;;;2.08;;
54937;SDS011;52756;52.826;6.214;2023-04-12T01:46:46;5.55;;;2.00;;
54937;SDS011;52756;52.826;6.214;2023-04-12T01:49:12;6.40;;;2.38;;
54937;SDS011;52756;52.826;6.214;2023-04-12T01:54:21;11.00;;;3.35;;
54937;SDS011;52756;52.826;6.214;2023-04-12T01:56:55;9.25;;;2.40;;
54937;SDS011;52756;52.826;6.214;2023-04-12T01:59:25;7.47;;;2.20;;
54937;SDS011;52756;52.826;6.214;2023-04-12T02:01:54;6.80;;;1.90;;
54937;SDS011;52756;52.826;6.214;2023-04-12T02:04:20;4.15;;;1.60;;
54937;SDS011;52756;52.826;6.214;2023-04-12T02:06:49;7.97;;;1.92;;
54937;SDS011;52756;52.826;6.214;2023-04-12T02:09:15;8.20;;;1.80;;
54937;SDS011;52756;52.826;6.214;2023-04-12T02:11:40;9.00;;;2.38;;
54937;SDS011;52756;52.826;6.214;2023-04-12T02:14:11;6.53;;;2.03;;
54937;SDS011;52756;52.826;6.214;2023-04-12T02:16:36;6.18;;;2.15;;
54937;SDS011;52756;52.826;6.214;2023-04-12T02:19:02;6.88;;;1.77;;
54937;SDS011;52756;52.826;6.214;2023-04-12T02:21:28;5.60;;;1.80;;
54937;SDS011;52756;52.826;6.214;2023-04-12T02:24:03;6.70;;;1.90;;
54937;SDS011;52756;52.826;6.214;2023-04-12T02:26:28;8.30;;;2.15;;
54937;SDS011;52756;52.826;6.214;2023-04-12T02:28:54;6.57;;;1.88;;
54937;SDS011;52756;52.826;6.214;2023-04-12T02:31:20;6.60;;;1.75;;
54937;SDS011;52756;52.826;6.214;2023-04-12T02:33:45;7.47;;;2.45;;
54937;SDS011;52756;52.826;6.214;2023-04-12T02:36:11;5.80;;;2.42;;
54937;SDS011;52756;52.826;6.214;2023-04-12T02:38:37;6.78;;;2.95;;
54937;SDS011;52756;52.826;6.214;2023-04-12T02:41:02;7.90;;;2.78;;
54937;SDS011;52756;52.826;6.214;2023-04-12T02:43:28;5.72;;;1.80;;
54937;SDS011;52756;52.826;6.214;2023-04-12T02:45:54;6.68;;;2.10;;
54937;SDS011;52756;52.826;6.214;2023-04-12T02:48:19;6.03;;;2.13;;
54937;SDS011;52756;52.826;6.214;2023-04-12T02:50:45;10.45;;;2.70;;
54937;SDS011;52756;52.826;6.214;2023-04-12T02:53:11;6.53;;;1.85;;
54937;SDS011;52756;52.826;6.214;2023-04-12T02:55:36;8.43;;;2.35;;
54937;SDS011;52756;52.826;6.214;2023-04-12T02:58:02;7.85;;;2.53;;
54937;SDS011;52756;52.826;6.214;2023-04-12T03:00:28;5.95;;;2.13;;
54937;SDS011;52756;52.826;6.214;2023-04-12T03:02:54;6.05;;;1.85;;
54937;SDS011;52756;52.826;6.214;2023-04-12T03:05:20;7.55;;;2.53;;
54937;SDS011;52756;52.826;6.214;2023-04-12T03:07:45;10.68;;;2.30;;
54937;SDS011;52756;52.826;6.214;2023-04-12T03:10:13;6.05;;;2.22;;
54937;SDS011;52756;52.826;6.214;2023-04-12T03:12:38;6.50;;;1.90;;
54937;SDS011;52756;52.826;6.214;2023-04-12T03:15:04;8.65;;;2.40;;
54937;SDS011;52756;52.826;6.214;2023-04-12T03:17:30;7.22;;;2.60;;
54937;SDS011;52756;52.826;6.214;2023-04-12T03:20:01;5.57;;;2.22;;
54937;SDS011;52756;52.826;6.214;2023-04-12T03:22:33;7.97;;;1.98;;
54937;SDS011;52756;52.826;6.214;2023-04-12T03:25:01;8.18;;;2.10;;
54937;SDS011;52756;52.826;6.214;2023-04-12T03:27:29;5.80;;;1.60;;
54937;SDS011;52756;52.826;6.214;2023-04-12T03:29:55;7.25;;;1.85;;
54937;SDS011;52756;52.826;6.214;2023-04-12T03:32:21;7.95;;;1.95;;
54937;SDS011;52756;52.826;6.214;2023-04-12T03:34:47;7.68;;;1.63;;
54937;SDS011;52756;52.826;6.214;2023-04-12T03:37:13;6.55;;;1.90;;
54937;SDS011;52756;52.826;6.214;2023-04-12T03:39:39;6.32;;;1.60;;
54937;SDS011;52756;52.826;6.214;2023-04-12T03:42:05;6.88;;;2.15;;
54937;SDS011;52756;52.826;6.214;2023-04-12T03:44:30;4.78;;;1.70;;
54937;SDS011;52756;52.826;6.214;2023-04-12T03:46:56;5.13;;;1.50;;
54937;SDS011;52756;52.826;6.214;2023-04-12T03:49:22;5.57;;;2.00;;
54937;SDS011;52756;52.826;6.214;2023-04-12T03:51:48;12.00;;;2.63;;
54937;SDS011;52756;52.826;6.214;2023-04-12T03:54:15;7.53;;;1.90;;
54937;SDS011;52756;52.826;6.214;2023-04-12T03:56:40;8.38;;;2.08;;
54937;SDS011;52756;52.826;6.214;2023-04-12T03:59:06;4.32;;;2.03;;
54937;SDS011;52756;52.826;6.214;2023-04-12T04:01:33;6.10;;;1.80;;
54937;SDS011;52756;52.826;6.214;2023-04-12T04:03:59;5.70;;;1.77;;
54937;SDS011;52756;52.826;6.214;2023-04-12T04:06:25;7.63;;;2.03;;
54937;SDS011;52756;52.826;6.214;2023-04-12T04:08:51;6.65;;;2.45;;
54937;SDS011;52756;52.826;6.214;2023-04-12T04:11:17;8.85;;;2.15;;
54937;SDS011;52756;52.826;6.214;2023-04-12T04:13:43;3.75;;;1.80;;
54937;SDS011;52756;52.826;6.214;2023-04-12T04:16:10;6.57;;;2.10;;
54937;SDS011;52756;52.826;6.214;2023-04-12T04:18:36;4.13;;;2.08;;
54937;SDS011;52756;52.826;6.214;2023-04-12T04:21:02;4.30;;;1.70;;
54937;SDS011;52756;52.826;6.214;2023-04-12T04:23:29;6.20;;;2.15;;
54937;SDS011;52756;52.826;6.214;2023-04-12T04:26:02;13.40;;;3.40;;
54937;SDS011;52756;52.826;6.214;2023-04-12T04:28:35;8.23;;;2.30;;
54937;SDS011;52756;52.826;6.214;2023-04-12T04:31:09;6.70;;;2.22;;
54937;SDS011;52756;52.826;6.214;2023-04-12T04:33:36;7.55;;;2.13;;
54937;SDS011;52756;52.826;6.214;2023-04-12T04:36:03;6.03;;;2.88;;
54937;SDS011;52756;52.826;6.214;2023-04-12T04:38:30;8.85;;;3.08;;
54937;SDS011;52756;52.826;6.214;2023-04-12T04:40:59;6.95;;;3.35;;
54937;SDS011;52756;52.826;6.214;2023-04-12T04:43:28;8.07;;;3.90;;
54937;SDS011;52756;52.826;6.214;2023-04-12T04:45:57;9.02;;;4.20;;
54937;SDS011;52756;52.826;6.214;2023-04-12T04:48:24;9.93;;;5.68;;
54937;SDS011;52756;52.826;6.214;2023-04-12T04:50:50;9.93;;;5.22;;
54937;SDS011;52756;52.826;6.214;2023-04-12T04:53:17;7.60;;;5.30;;
54937;SDS011;52756;52.826;6.214;2023-04-12T04:55:44;13.68;;;6.45;;
54937;SDS011;52756;52.826;6.214;2023-04-12T04:58:10;10.68;;;7.47;;
54937;SDS011;52756;52.826;6.214;2023-04-12T05:00:35;12.20;;;6.30;;
54937;SDS011;52756;52.826;6.214;2023-04-12T05:03:02;12.32;;;6.22;;
54937;SDS011;52756;52.826;6.214;2023-04-12T05:05:28;11.57;;;6.88;;
54937;SDS011;52756;52.826;6.214;2023-04-12T05:07:54;9.57;;;7.13;;
54937;SDS011;52756;52.826;6.214;2023-04-12T05:10:21;12.43;;;6.72;;
54937;SDS011;52756;52.826;6.214;2023-04-12T05:12:47;14.98;;;6.72;;
54937;SDS011;52756;52.826;6.214;2023-04-12T05:15:12;12.15;;;6.63;;
54937;SDS011;52756;52.826;6.214;2023-04-12T05:17:38;8.88;;;6.10;;
54937;SDS011;52756;52.826;6.214;2023-04-12T05:20:05;10.95;;;6.00;;
54937;SDS011;52756;52.826;6.214;2023-04-12T05:22:32;11.13;;;6.47;;
54937;SDS011;52756;52.826;6.214;2023-04-12T05:24:58;8.77;;;6.10;;
54937;SDS011;52756;52.826;6.214;2023-04-12T05:27:25;13.63;;;5.45;;
54937;SDS011;52756;52.826;6.214;2023-04-12T05:29:52;10.52;;;5.47;;
54937;SDS011;52756;52.826;6.214;2023-04-12T05:32:18;10.93;;;5.70;;
54937;SDS011;52756;52.826;6.214;2023-04-12T05:34:44;9.80;;;5.20;;
54937;SDS011;52756;52.826;6.214;2023-04-12T05:37:10;7.80;;;4.68;;
54937;SDS011;52756;52.826;6.214;2023-04-12T05:39:35;9.65;;;4.70;;
54937;SDS011;52756;52.826;6.214;2023-04-12T05:42:01;10.52;;;4.90;;
54937;SDS011;52756;52.826;6.214;2023-04-12T05:44:27;11.00;;;5.55;;
54937;SDS011;52756;52.826;6.214;2023-04-12T05:46:52;7.68;;;4.30;;
54937;SDS011;52756;52.826;6.214;2023-04-12T05:49:18;7.55;;;4.65;;
54937;SDS011;52756;52.826;6.214;2023-04-12T05:51:44;9.15;;;4.20;;
54937;SDS011;52756;52.826;6.214;2023-04-12T05:54:10;10.48;;;4.80;;
54937;SDS011;52756;52.826;6.214;2023-04-12T05:56:35;9.80;;;4.10;;
54937;SDS011;52756;52.826;6.214;2023-04-12T05:59:01;5.15;;;3.65;;
54937;SDS011;52756;52.826;6.214;2023-04-12T06:01:29;8.63;;;4.10;;
54937;SDS011;52756;52.826;6.214;2023-04-12T06:03:57;8.40;;;4.43;;
54937;SDS011;52756;52.826;6.214;2023-04-12T06:06:23;11.23;;;4.13;;
54937;SDS011;52756;52.826;6.214;2023-04-12T06:08:48;7.80;;;4.00;;
54937;SDS011;52756;52.826;6.214;2023-04-12T06:11:15;10.15;;;4.20;;
54937;SDS011;52756;52.826;6.214;2023-04-12T06:13:41;7.50;;;4.50;;
54937;SDS011;52756;52.826;6.214;2023-04-12T06:16:06;5.80;;;3.75;;
54937;SDS011;52756;52.826;6.214;2023-04-12T06:18:32;8.32;;;4.20;;
54937;SDS011;52756;52.826;6.214;2023-04-12T06:20:58;8.02;;;4.65;;
54937;SDS011;52756;52.826;6.214;2023-04-12T06:23:24;7.30;;;4.30;;
54937;SDS011;52756;52.826;6.214;2023-04-12T06:25:51;6.43;;;4.10;;
54937;SDS011;52756;52.826;6.214;2023-04-12T06:28:17;7.47;;;4.95;;
54937;SDS011;52756;52.826;6.214;2023-04-12T06:30:43;10.05;;;4.25;;
54937;SDS011;52756;52.826;6.214;2023-04-12T06:33:09;6.47;;;4.60;;
54937;SDS011;52756;52.826;6.214;2023-04-12T06:35:35;8.25;;;4.20;;
54937;SDS011;52756;52.826;6.214;2023-04-12T06:38:01;6.68;;;4.57;;
54937;SDS011;52756;52.826;6.214;2023-04-12T06:40:27;7.13;;;4.43;;
54937;SDS011;52756;52.826;6.214;2023-04-12T06:42:53;11.32;;;5.13;;
54937;SDS011;52756;52.826;6.214;2023-04-12T06:45:18;6.22;;;4.47;;
54937;SDS011;52756;52.826;6.214;2023-04-12T06:47:44;7.20;;;4.65;;
54937;SDS011;52756;52.826;6.214;2023-04-12T06:50:11;5.90;;;4.55;;
54937;SDS011;52756;52.826;6.214;2023-04-12T06:52:37;6.30;;;4.55;;
54937;SDS011;52756;52.826;6.214;2023-04-12T06:55:03;6.95;;;4.70;;
54937;SDS011;52756;52.826;6.214;2023-04-12T06:57:30;7.55;;;4.70;;
54937;SDS011;52756;52.826;6.214;2023-04-12T06:59:55;7.38;;;4.40;;
54937;SDS011;52756;52.826;6.214;2023-04-12T07:02:21;7.22;;;4.93;;
54937;SDS011;52756;52.826;6.214;2023-04-12T07:04:50;8.30;;;4.82;;
54937;SDS011;52756;52.826;6.214;2023-04-12T07:07:19;7.28;;;4.60;;
54937;SDS011;52756;52.826;6.214;2023-04-12T07:09:45;6.20;;;3.80;;
54937;SDS011;52756;52.826;6.214;2023-04-12T07:12:16;6.93;;;5.00;;
54937;SDS011;52756;52.826;6.214;2023-04-12T07:14:42;6.75;;;5.40;;
54937;SDS011;52756;52.826;6.214;2023-04-12T07:17:07;7.63;;;4.50;;
54937;SDS011;52756;52.826;6.214;2023-04-12T07:19:33;7.90;;;5.05;;
54937;SDS011;52756;52.826;6.214;2023-04-12T07:21:59;7.30;;;5.97;;
54937;SDS011;52756;52.826;6.214;2023-04-12T07:24:25;8.52;;;5.45;;
54937;SDS011;52756;52.826;6.214;2023-04-12T07:26:51;6.50;;;4.20;;
54937;SDS011;52756;52.826;6.214;2023-04-12T07:29:18;7.40;;;4.35;;
54937;SDS011;52756;52.826;6.214;2023-04-12T07:31:44;6.57;;;4.57;;
54937;SDS011;52756;52.826;6.214;2023-04-12T07:34:10;6.18;;;4.85;;
54937;SDS011;52756;52.826;6.214;2023-04-12T07:36:36;7.25;;;4.35;;
54937;SDS011;52756;52.826;6.214;2023-04-12T07:39:02;6.63;;;4.13;;
54937;SDS011;52756;52.826;6.214;2023-04-12T07:41:27;6.50;;;4.00;;
54937;SDS011;52756;52.826;6.214;2023-04-12T07:43:53;7.38;;;4.95;;
54937;SDS011;52756;52.826;6.214;2023-04-12T07:46:19;5.18;;;3.65;;
54937;SDS011;52756;52.826;6.214;2023-04-12T07:48:45;6.18;;;4.43;;
54937;SDS011;52756;52.826;6.214;2023-04-12T07:51:11;5.57;;;4.30;;
54937;SDS011;52756;52.826;6.214;2023-04-12T07:53:37;7.40;;;5.30;;
54937;SDS011;52756;52.826;6.214;2023-04-12T07:56:04;6.57;;;5.10;;
54937;SDS011;52756;52.826;6.214;2023-04-12T07:58:31;7.45;;;5.45;;
54937;SDS011;52756;52.826;6.214;2023-04-12T08:00:57;6.00;;;5.22;;
54937;SDS011;52756;52.826;6.214;2023-04-12T08:03:23;6.05;;;4.32;;
54937;SDS011;52756;52.826;6.214;2023-04-12T08:05:50;6.63;;;5.22;;
54937;SDS011;52756;52.826;6.214;2023-04-12T08:08:19;5.55;;;4.80;;
54937;SDS011;52756;52.826;6.214;2023-04-12T08:10:46;6.32;;;4.45;;
54937;SDS011;52756;52.826;6.214;2023-04-12T08:13:13;5.65;;;5.03;;
54937;SDS011;52756;52.826;6.214;2023-04-12T08:15:38;6.53;;;5.25;;
54937;SDS011;52756;52.826;6.214;2023-04-12T08:18:04;5.50;;;4.90;;
54937;SDS011;52756;52.826;6.214;2023-04-12T08:20:30;5.43;;;4.78;;
54937;SDS011;52756;52.826;6.214;2023-04-12T08:22:57;5.88;;;4.78;;
54937;SDS011;52756;52.826;6.214;2023-04-12T08:25:23;5.75;;;4.45;;
54937;SDS011;52756;52.826;6.214;2023-04-12T08:27:49;6.07;;;4.82;;
54937;SDS011;52756;52.826;6.214;2023-04-12T08:30:15;6.18;;;4.97;;
54937;SDS011;52756;52.826;6.214;2023-04-12T08:32:41;6.75;;;4.60;;
54937;SDS011;52756;52.826;6.214;2023-04-12T08:35:07;4.68;;;4.03;;
54937;SDS011;52756;52.826;6.214;2023-04-12T08:37:33;5.50;;;4.40;;
54937;SDS011;52756;52.826;6.214;2023-04-12T08:40:01;6.47;;;5.07;;
54937;SDS011;52756;52.826;6.214;2023-04-12T08:42:30;6.88;;;5.00;;
54937;SDS011;52756;52.826;6.214;2023-04-12T08:44:58;5.47;;;4.10;;
54937;SDS011;52756;52.826;6.214;2023-04-12T08:47:28;4.90;;;4.40;;
54937;SDS011;52756;52.826;6.214;2023-04-12T08:49:55;5.32;;;4.45;;
54937;SDS011;52756;52.826;6.214;2023-04-12T08:52:21;6.70;;;4.97;;
54937;SDS011;52756;52.826;6.214;2023-04-12T08:54:47;4.70;;;4.25;;
54937;SDS011;52756;52.826;6.214;2023-04-12T08:57:13;4.82;;;3.58;;
54937;SDS011;52756;52.826;6.214;2023-04-12T08:59:42;4.07;;;3.25;;
54937;SDS011;52756;52.826;6.214;2023-04-12T09:02:09;4.38;;;3.13;;
54937;SDS011;52756;52.826;6.214;2023-04-12T09:04:50;4.70;;;3.03;;
54937;SDS011;52756;52.826;6.214;2023-04-12T09:07:17;5.25;;;3.40;;
54937;SDS011;52756;52.826;6.214;2023-04-12T09:09:45;3.92;;;3.03;;
54937;SDS011;52756;52.826;6.214;2023-04-12T09:12:12;4.95;;;3.08;;
54937;SDS011;52756;52.826;6.214;2023-04-12T09:14:39;4.63;;;3.17;;
54937;SDS011;52756;52.826;6.214;2023-04-12T09:17:24;5.00;;;3.40;;
54937;SDS011;52756;52.826;6.214;2023-04-12T09:19:52;4.90;;;3.60;;
54937;SDS011;52756;52.826;6.214;2023-04-12T09:22:31;4.85;;;2.67;;
54937;SDS011;52756;52.826;6.214;2023-04-12T09:24:58;4.63;;;3.22;;
54937;SDS011;52756;52.826;6.214;2023-04-12T09:27:25;6.47;;;3.40;;
54937;SDS011;52756;52.826;6.214;2023-04-12T09:30:05;5.78;;;3.85;;
54937;SDS011;52756;52.826;6.214;2023-04-12T09:32:33;7.22;;;3.45;;
54937;SDS011;52756;52.826;6.214;2023-04-12T09:34:59;8.43;;;4.00;;
54937;SDS011;52756;52.826;6.214;2023-04-12T09:37:26;8.95;;;4.10;;
54937;SDS011;52756;52.826;6.214;2023-04-12T09:39:59;7.60;;;3.67;;
54937;SDS011;52756;52.826;6.214;2023-04-12T09:42:26;5.82;;;3.08;;
54937;SDS011;52756;52.826;6.214;2023-04-12T09:44:52;8.60;;;4.45;;
54937;SDS011;52756;52.826;6.214;2023-04-12T09:47:19;10.25;;;3.35;;
54937;SDS011;52756;52.826;6.214;2023-04-12T09:49:45;11.10;;;3.67;;
54937;SDS011;52756;52.826;6.214;2023-04-12T09:52:11;8.27;;;3.58;;
54937;SDS011;52756;52.826;6.214;2023-04-12T09:57:13;8.50;;;3.40;;
54937;SDS011;52756;52.826;6.214;2023-04-12T09:59:42;7.82;;;3.42;;
54937;SDS011;52756;52.826;6.214;2023-04-12T10:02:12;6.70;;;2.80;;
54937;SDS011;52756;52.826;6.214;2023-04-12T10:04:41;8.95;;;3.60;;
54937;SDS011;52756;52.826;6.214;2023-04-12T10:07:07;12.57;;;4.10;;
54937;SDS011;52756;52.826;6.214;2023-04-12T10:09:33;6.65;;;3.00;;
54937;SDS011;52756;52.826;6.214;2023-04-12T10:12:04;9.65;;;2.42;;
54937;SDS011;52756;52.826;6.214;2023-04-12T10:14:31;7.63;;;3.22;;
54937;SDS011;52756;52.826;6.214;2023-04-12T10:16:58;11.85;;;3.58;;
54937;SDS011;52756;52.826;6.214;2023-04-12T10:19:27;10.95;;;3.20;;
54937;SDS011;52756;52.826;6.214;2023-04-12T10:21:54;10.82;;;2.80;;
54937;SDS011;52756;52.826;6.214;2023-04-12T10:24:21;9.07;;;3.17;;
54937;SDS011;52756;52.826;6.214;2023-04-12T10:26:47;11.63;;;2.80;;
54937;SDS011;52756;52.826;6.214;2023-04-12T10:29:24;7.82;;;2.50;;
54937;SDS011;52756;52.826;6.214;2023-04-12T10:31:58;12.15;;;2.80;;
54937;SDS011;52756;52.826;6.214;2023-04-12T10:34:47;7.63;;;2.33;;
54937;SDS011;52756;52.826;6.214;2023-04-12T10:37:16;10.60;;;1.90;;
54937;SDS011;52756;52.826;6.214;2023-04-12T10:39:42;7.80;;;2.58;;
54937;SDS011;52756;52.826;6.214;2023-04-12T10:44:47;7.03;;;2.22;;
54937;SDS011;52756;52.826;6.214;2023-04-12T10:47:14;12.63;;;2.70;;
54937;SDS011;52756;52.826;6.214;2023-04-12T10:49:40;13.60;;;3.33;;
54937;SDS011;52756;52.826;6.214;2023-04-12T10:52:48;9.57;;;2.25;;
54937;SDS011;52756;52.826;6.214;2023-04-12T10:55:37;8.52;;;2.47;;
54937;SDS011;52756;52.826;6.214;2023-04-12T10:58:09;8.63;;;2.55;;
54937;SDS011;52756;52.826;6.214;2023-04-12T11:03:20;13.15;;;3.10;;
54937;SDS011;52756;52.826;6.214;2023-04-12T11:05:57;11.45;;;3.13;;
54937;SDS011;52756;52.826;6.214;2023-04-12T11:08:30;10.50;;;3.08;;
54937;SDS011;52756;52.826;6.214;2023-04-12T11:11:03;15.18;;;3.10;;
54937;SDS011;52756;52.826;6.214;2023-04-12T11:13:33;14.43;;;3.30;;
54937;SDS011;52756;52.826;6.214;2023-04-12T11:16:00;12.95;;;2.78;;
54937;SDS011;52756;52.826;6.214;2023-04-12T11:18:28;12.85;;;2.88;;
54937;SDS011;52756;52.826;6.214;2023-04-12T11:20:53;11.48;;;2.80;;
54937;SDS011;52756;52.826;6.214;2023-04-12T11:23:22;13.43;;;2.90;;
54937;SDS011;52756;52.826;6.214;2023-04-12T11:25:48;11.48;;;3.20;;
54937;SDS011;52756;52.826;6.214;2023-04-12T11:28:17;7.68;;;2.30;;
54937;SDS011;52756;52.826;6.214;2023-04-12T11:30:56;11.35;;;2.72;;
54937;SDS011;52756;52.826;6.214;2023-04-12T11:36:05;13.52;;;2.92;;
54937;SDS011;52756;52.826;6.214;2023-04-12T11:38:33;10.70;;;3.15;;
54937;SDS011;52756;52.826;6.214;2023-04-12T11:41:00;8.25;;;2.28;;
54937;SDS011;52756;52.826;6.214;2023-04-12T11:43:26;11.95;;;3.53;;
54937;SDS011;52756;52.826;6.214;2023-04-12T11:45:56;11.85;;;2.63;;
54937;SDS011;52756;52.826;6.214;2023-04-12T11:48:23;10.57;;;2.63;;
54937;SDS011;52756;52.826;6.214;2023-04-12T11:50:52;13.23;;;2.65;;
54937;SDS011;52756;52.826;6.214;2023-04-12T11:53:18;15.73;;;2.88;;
54937;SDS011;52756;52.826;6.214;2023-04-12T11:55:48;7.97;;;2.50;;
54937;SDS011;52756;52.826;6.214;2023-04-12T11:58:14;6.85;;;2.40;;
54937;SDS011;52756;52.826;6.214;2023-04-12T12:00:42;10.80;;;2.58;;
54937;SDS011;52756;52.826;6.214;2023-04-12T12:03:09;8.27;;;2.13;;
54937;SDS011;52756;52.826;6.214;2023-04-12T12:05:36;14.35;;;2.83;;
54937;SDS011;52756;52.826;6.214;2023-04-12T12:08:02;9.98;;;2.53;;
54937;SDS011;52756;52.826;6.214;2023-04-12T12:10:32;8.50;;;2.13;;
54937;SDS011;52756;52.826;6.214;2023-04-12T12:13:01;9.38;;;2.25;;
54937;SDS011;52756;52.826;6.214;2023-04-12T12:15:28;10.10;;;2.30;;
54937;SDS011;52756;52.826;6.214;2023-04-12T12:17:55;11.00;;;2.83;;
54937;SDS011;52756;52.826;6.214;2023-04-12T12:20:20;8.48;;;2.40;;
54937;SDS011;52756;52.826;6.214;2023-04-12T12:22:48;14.63;;;3.55;;
54937;SDS011;52756;52.826;6.214;2023-04-12T12:25:16;11.07;;;2.33;;
54937;SDS011;52756;52.826;6.214;2023-04-12T12:27:42;11.57;;;2.72;;
54937;SDS011;52756;52.826;6.214;2023-04-12T12:30:12;10.75;;;2.25;;
54937;SDS011;52756;52.826;6.214;2023-04-12T12:32:41;8.60;;;2.10;;
54937;SDS011;52756;52.826;6.214;2023-04-12T12:35:08;10.27;;;2.28;;
54937;SDS011;52756;52.826;6.214;2023-04-12T12:37:35;11.05;;;2.40;;
54937;SDS011;52756;52.826;6.214;2023-04-12T12:40:08;12.40;;;2.63;;
54937;SDS011;52756;52.826;6.214;2023-04-12T12:42:35;11.63;;;3.03;;
54937;SDS011;52756;52.826;6.214;2023-04-12T12:45:02;10.93;;;3.08;;
54937;SDS011;52756;52.826;6.214;2023-04-12T12:47:29;10.77;;;2.67;;
54937;SDS011;52756;52.826;6.214;2023-04-12T12:49:56;12.30;;;3.67;;
54937;SDS011;52756;52.826;6.214;2023-04-12T12:52:22;10.23;;;2.90;;
54937;SDS011;52756;52.826;6.214;2023-04-12T12:54:48;8.52;;;2.67;;
54937;SDS011;52756;52.826;6.214;2023-04-12T12:57:13;11.40;;;2.83;;
54937;SDS011;52756;52.826;6.214;2023-04-12T12:59:39;12.95;;;3.38;;
54937;SDS011;52756;52.826;6.214;2023-04-12T13:02:05;10.00;;;2.28;;
54937;SDS011;52756;52.826;6.214;2023-04-12T13:04:31;10.70;;;2.55;;
54937;SDS011;52756;52.826;6.214;2023-04-12T13:06:57;8.80;;;2.33;;
54937;SDS011;52756;52.826;6.214;2023-04-12T13:09:23;10.38;;;2.65;;
54937;SDS011;52756;52.826;6.214;2023-04-12T13:11:49;9.60;;;2.35;;
54937;SDS011;52756;52.826;6.214;2023-04-12T13:14:15;8.25;;;2.58;;
54937;SDS011;52756;52.826;6.214;2023-04-12T13:16:40;9.50;;;2.70;;
54937;SDS011;52756;52.826;6.214;2023-04-12T13:19:06;7.85;;;2.05;;
54937;SDS011;52756;52.826;6.214;2023-04-12T13:21:32;11.35;;;2.85;;
54937;SDS011;52756;52.826;6.214;2023-04-12T13:23:58;11.60;;;3.30;;
54937;SDS011;52756;52.826;6.214;2023-04-12T13:26:23;9.63;;;2.78;;
54937;SDS011;52756;52.826;6.214;2023-04-12T13:28:49;11.00;;;2.95;;
54937;SDS011;52756;52.826;6.214;2023-04-12T13:31:15;10.30;;;3.20;;
54937;SDS011;52756;52.826;6.214;2023-04-12T13:33:41;8.73;;;2.10;;
54937;SDS011;52756;52.826;6.214;2023-04-12T13:36:07;6.93;;;2.50;;
54937;SDS011;52756;52.826;6.214;2023-04-12T13:38:33;10.00;;;2.65;;
54937;SDS011;52756;52.826;6.214;2023-04-12T13:40:58;11.18;;;2.83;;
54937;SDS011;52756;52.826;6.214;2023-04-12T13:43:24;12.57;;;3.80;;
54937;SDS011;52756;52.826;6.214;2023-04-12T13:45:50;8.32;;;2.75;;
54937;SDS011;52756;52.826;6.214;2023-04-12T13:48:16;10.80;;;2.97;;
54937;SDS011;52756;52.826;6.214;2023-04-12T13:50:41;10.27;;;3.13;;
54937;SDS011;52756;52.826;6.214;2023-04-12T13:53:07;7.63;;;2.35;;
54937;SDS011;52756;52.826;6.214;2023-04-12T13:55:33;5.20;;;2.35;;
54937;SDS011;52756;52.826;6.214;2023-04-12T13:57:59;6.28;;;2.03;;
54937;SDS011;52756;52.826;6.214;2023-04-12T14:00:24;10.23;;;2.28;;
54937;SDS011;52756;52.826;6.214;2023-04-12T14:02:51;8.80;;;2.70;;
54937;SDS011;52756;52.826;6.214;2023-04-12T14:05:17;9.00;;;2.30;;
54937;SDS011;52756;52.826;6.214;2023-04-12T14:07:42;7.95;;;2.15;;
54937;SDS011;52756;52.826;6.214;2023-04-12T14:10:08;7.25;;;2.03;;
54937;SDS011;52756;52.826;6.214;2023-04-12T14:12:34;8.70;;;2.13;;
54937;SDS011;52756;52.826;6.214;2023-04-12T14:15:00;9.63;;;2.53;;
54937;SDS011;52756;52.826;6.214;2023-04-12T14:17:27;12.75;;;2.83;;
54937;SDS011;52756;52.826;6.214;2023-04-12T14:19:56;8.25;;;2.42;;
54937;SDS011;52756;52.826;6.214;2023-04-12T14:22:22;7.68;;;2.20;;
54937;SDS011;52756;52.826;6.214;2023-04-12T14:24:48;9.00;;;2.50;;
54937;SDS011;52756;52.826;6.214;2023-04-12T14:27:14;7.97;;;2.08;;
54937;SDS011;52756;52.826;6.214;2023-04-12T14:29:39;8.48;;;2.08;;
54937;SDS011;52756;52.826;6.214;2023-04-12T14:32:05;8.93;;;2.00;;
54937;SDS011;52756;52.826;6.214;2023-04-12T14:34:31;11.02;;;2.83;;
54937;SDS011;52756;52.826;6.214;2023-04-12T14:36:58;9.60;;;3.00;;
54937;SDS011;52756;52.826;6.214;2023-04-12T14:39:24;12.57;;;3.58;;
54937;SDS011;52756;52.826;6.214;2023-04-12T14:41:51;9.25;;;3.22;;
54937;SDS011;52756;52.826;6.214;2023-04-12T14:44:17;7.90;;;2.83;;
54937;SDS011;52756;52.826;6.214;2023-04-12T14:46:42;9.73;;;2.97;;
54937;SDS011;52756;52.826;6.214;2023-04-12T14:49:09;8.60;;;2.05;;
54937;SDS011;52756;52.826;6.214;2023-04-12T14:51:35;9.73;;;2.70;;
54937;SDS011;52756;52.826;6.214;2023-04-12T14:54:00;9.60;;;2.30;;
54937;SDS011;52756;52.826;6.214;2023-04-12T14:56:26;6.78;;;2.00;;
54937;SDS011;52756;52.826;6.214;2023-04-12T14:58:52;6.22;;;1.70;;
54937;SDS011;52756;52.826;6.214;2023-04-12T15:01:22;7.32;;;2.10;;
54937;SDS011;52756;52.826;6.214;2023-04-12T15:03:49;6.47;;;1.52;;
54937;SDS011;52756;52.826;6.214;2023-04-12T15:06:16;3.42;;;1.08;;
54937;SDS011;52756;52.826;6.214;2023-04-12T15:08:42;4.60;;;1.15;;